sensor_id;sensor_type;location;lat;lon;timestamp;temperature;humidity
21001;DHT22;10658;50.920;12.238;2023-01-28T00:01:07;0.90;99.90
21001;DHT22;10658;50.920;12.238;2023-01-28T00:05:11;0.80;99.90
21001;DHT22;10658;50.920;12.238;2023-01-28T00:09:12;0.80;99.90
21001;DHT22;10658;50.920;12.238;2023-01-28T00:13:13;0.80;99.90
21001;DHT22;10658;50.920;12.238;2023-01-28T00:17:15;0.80;99.90
21001;DHT22;10658;50.920;12.238;2023-01-28T00:21:17;0.80;99.90
21001;DHT22;10658;50.920;12.238;2023-01-28T00:25:19;0.80;99.90
21001;DHT22;10658;50.920;12.238;2023-01-28T00:29:20;0.80;99.90
21001;DHT22;10658;50.920;12.238;2023-01-28T00:33:22;0.70;99.90
21001;DHT22;10658;50.920;12.238;2023-01-28T00:37:23;0.70;99.90
21001;DHT22;10658;50.920;12.238;2023-01-28T00:41:27;0.70;99.90
21001;DHT22;10658;50.920;12.238;2023-01-28T00:45:30;0.70;99.90
21001;DHT22;10658;50.920;12.238;2023-01-28T00:49:32;0.70;99.90
21001;DHT22;10658;50.920;12.238;2023-01-28T00:53:34;0.70;99.90
21001;DHT22;10658;50.920;12.238;2023-01-28T00:57:37;0.70;99.90
21001;DHT22;10658;50.920;12.238;2023-01-28T01:01:39;0.70;99.90
21001;DHT22;10658;50.920;12.238;2023-01-28T01:05:41;0.70;99.90
21001;DHT22;10658;50.920;12.238;2023-01-28T01:09:42;0.70;99.90
21001;DHT22;10658;50.920;12.238;2023-01-28T01:13:52;0.80;99.90
21001;DHT22;10658;50.920;12.238;2023-01-28T01:17:55;0.70;99.90
21001;DHT22;10658;50.920;12.238;2023-01-28T01:22:00;0.80;99.90
21001;DHT22;10658;50.920;12.238;2023-01-28T01:26:02;0.80;99.90
21001;DHT22;10658;50.920;12.238;2023-01-28T01:30:04;0.80;99.90
21001;DHT22;10658;50.920;12.238;2023-01-28T01:34:08;0.80;99.90
21001;DHT22;10658;50.920;12.238;2023-01-28T01:38:09;0.80;99.90
21001;DHT22;10658;50.920;12.238;2023-01-28T01:42:12;0.80;99.90
21001;DHT22;10658;50.920;12.238;2023-01-28T01:46:16;0.80;99.90
21001;DHT22;10658;50.920;12.238;2023-01-28T01:50:32;0.80;99.90
21001;DHT22;10658;50.920;12.238;2023-01-28T01:54:44;0.80;99.90
21001;DHT22;10658;50.920;12.238;2023-01-28T01:58:49;0.80;99.90
21001;DHT22;10658;50.920;12.238;2023-01-28T02:02:55;0.80;99.90
21001;DHT22;10658;50.920;12.238;2023-01-28T02:06:59;0.80;99.90
21001;DHT22;10658;50.920;12.238;2023-01-28T02:11:04;0.80;99.90
21001;DHT22;10658;50.920;12.238;2023-01-28T02:15:13;0.80;99.90
21001;DHT22;10658;50.920;12.238;2023-01-28T02:19:18;0.80;99.90
21001;DHT22;10658;50.920;12.238;2023-01-28T02:32:16;0.80;99.90
21001;DHT22;10658;50.920;12.238;2023-01-28T02:36:29;0.80;99.90
21001;DHT22;10658;50.920;12.238;2023-01-28T02:40:40;0.80;99.90
21001;DHT22;10658;50.920;12.238;2023-01-28T02:45:30;0.80;99.90
21001;DHT22;10658;50.920;12.238;2023-01-28T02:49:55;0.70;99.90
21001;DHT22;10658;50.920;12.238;2023-01-28T02:54:02;0.70;99.90
21001;DHT22;10658;50.920;12.238;2023-01-28T02:58:26;0.70;99.90
21001;DHT22;10658;50.920;12.238;2023-01-28T03:02:49;0.70;99.90
21001;DHT22;10658;50.920;12.238;2023-01-28T03:06:58;0.70;99.90
21001;DHT22;10658;50.920;12.238;2023-01-28T03:11:01;0.60;99.90
21001;DHT22;10658;50.920;12.238;2023-01-28T03:15:25;0.60;99.90
21001;DHT22;10658;50.920;12.238;2023-01-28T03:19:47;0.60;99.90
21001;DHT22;10658;50.920;12.238;2023-01-28T03:24:27;0.60;99.90
21001;DHT22;10658;50.920;12.238;2023-01-28T03:28:54;0.60;99.90
21001;DHT22;10658;50.920;12.238;2023-01-28T03:33:18;0.50;99.90
21001;DHT22;10658;50.920;12.238;2023-01-28T03:37:40;0.50;99.90
21001;DHT22;10658;50.920;12.238;2023-01-28T03:46:04;0.50;99.90
21001;DHT22;10658;50.920;12.238;2023-01-28T03:50:06;0.50;99.90
21001;DHT22;10658;50.920;12.238;2023-01-28T03:54:22;0.50;99.90
21001;DHT22;10658;50.920;12.238;2023-01-28T03:58:24;0.40;99.90
21001;DHT22;10658;50.920;12.238;2023-01-28T04:02:30;0.40;99.90
21001;DHT22;10658;50.920;12.238;2023-01-28T04:06:32;0.40;99.90
21001;DHT22;10658;50.920;12.238;2023-01-28T04:10:52;0.30;99.90
21001;DHT22;10658;50.920;12.238;2023-01-28T04:14:58;0.30;99.90
21001;DHT22;10658;50.920;12.238;2023-01-28T04:19:08;0.30;99.90
21001;DHT22;10658;50.920;12.238;2023-01-28T04:23:10;0.30;99.90
21001;DHT22;10658;50.920;12.238;2023-01-28T04:27:11;0.30;99.90
21001;DHT22;10658;50.920;12.238;2023-01-28T04:31:13;0.30;99.90
21001;DHT22;10658;50.920;12.238;2023-01-28T04:35:15;0.30;99.90
21001;DHT22;10658;50.920;12.238;2023-01-28T04:39:39;0.30;99.90
21001;DHT22;10658;50.920;12.238;2023-01-28T04:43:52;0.30;99.90
21001;DHT22;10658;50.920;12.238;2023-01-28T04:48:07;0.30;99.90
21001;DHT22;10658;50.920;12.238;2023-01-28T04:52:28;0.30;99.90
21001;DHT22;10658;50.920;12.238;2023-01-28T04:56:41;0.30;99.90
21001;DHT22;10658;50.920;12.238;2023-01-28T05:00:43;0.30;99.90
21001;DHT22;10658;50.920;12.238;2023-01-28T05:04:44;0.30;99.90
21001;DHT22;10658;50.920;12.238;2023-01-28T05:08:56;0.20;99.90
21001;DHT22;10658;50.920;12.238;2023-01-28T05:13:00;0.20;99.90
21001;DHT22;10658;50.920;12.238;2023-01-28T05:17:04;0.20;99.90
21001;DHT22;10658;50.920;12.238;2023-01-28T05:21:07;0.10;99.90
21001;DHT22;10658;50.920;12.238;2023-01-28T05:25:12;0.10;99.90
21001;DHT22;10658;50.920;12.238;2023-01-28T05:29:16;0.00;99.90
21001;DHT22;10658;50.920;12.238;2023-01-28T05:33:20;0.00;99.90
21001;DHT22;10658;50.920;12.238;2023-01-28T05:37:23;0.00;99.90
21001;DHT22;10658;50.920;12.238;2023-01-28T05:41:29;0.00;99.90
21001;DHT22;10658;50.920;12.238;2023-01-28T05:45:34;0.00;99.90
21001;DHT22;10658;50.920;12.238;2023-01-28T05:49:48;-0.10;99.90
21001;DHT22;10658;50.920;12.238;2023-01-28T05:54:13;0.00;99.90
21001;DHT22;10658;50.920;12.238;2023-01-28T05:58:17;-0.10;99.90
21001;DHT22;10658;50.920;12.238;2023-01-28T06:02:19;-0.10;99.90
21001;DHT22;10658;50.920;12.238;2023-01-28T06:06:24;-0.10;99.90
21001;DHT22;10658;50.920;12.238;2023-01-28T06:10:26;-0.10;99.90
21001;DHT22;10658;50.920;12.238;2023-01-28T06:14:30;-0.20;99.90
21001;DHT22;10658;50.920;12.238;2023-01-28T06:18:47;-0.10;99.90
21001;DHT22;10658;50.920;12.238;2023-01-28T06:22:52;-0.20;99.90
21001;DHT22;10658;50.920;12.238;2023-01-28T06:26:54;-0.20;99.90
21001;DHT22;10658;50.920;12.238;2023-01-28T06:30:59;-0.20;99.90
21001;DHT22;10658;50.920;12.238;2023-01-28T06:35:02;-0.20;99.90
21001;DHT22;10658;50.920;12.238;2023-01-28T06:39:05;-0.20;99.90
21001;DHT22;10658;50.920;12.238;2023-01-28T06:43:10;-0.30;99.90
21001;DHT22;10658;50.920;12.238;2023-01-28T06:47:15;-0.30;99.90
21001;DHT22;10658;50.920;12.238;2023-01-28T06:51:16;-0.40;99.90
21001;DHT22;10658;50.920;12.238;2023-01-28T06:55:17;-0.40;99.90
21001;DHT22;10658;50.920;12.238;2023-01-28T06:59:19;-0.50;99.90
21001;DHT22;10658;50.920;12.238;2023-01-28T07:03:20;-0.40;99.90
21001;DHT22;10658;50.920;12.238;2023-01-28T07:07:24;-0.40;99.90
21001;DHT22;10658;50.920;12.238;2023-01-28T07:11:25;-0.50;99.90
21001;DHT22;10658;50.920;12.238;2023-01-28T07:15:27;-0.40;99.90
21001;DHT22;10658;50.920;12.238;2023-01-28T07:19:29;-0.50;99.90
21001;DHT22;10658;50.920;12.238;2023-01-28T07:23:30;-0.60;99.90
21001;DHT22;10658;50.920;12.238;2023-01-28T07:27:32;-0.60;99.90
21001;DHT22;10658;50.920;12.238;2023-01-28T07:31:34;-0.60;99.90
21001;DHT22;10658;50.920;12.238;2023-01-28T07:35:38;-0.70;99.90
21001;DHT22;10658;50.920;12.238;2023-01-28T07:39:40;-0.70;99.90
21001;DHT22;10658;50.920;12.238;2023-01-28T07:43:41;-0.70;99.90
21001;DHT22;10658;50.920;12.238;2023-01-28T07:47:43;-0.70;99.90
21001;DHT22;10658;50.920;12.238;2023-01-28T07:51:44;-0.70;99.90
21001;DHT22;10658;50.920;12.238;2023-01-28T07:55:48;-0.70;99.90
21001;DHT22;10658;50.920;12.238;2023-01-28T07:59:51;-0.80;99.90
21001;DHT22;10658;50.920;12.238;2023-01-28T08:03:58;-0.70;99.90
21001;DHT22;10658;50.920;12.238;2023-01-28T08:08:15;-0.70;99.90
21001;DHT22;10658;50.920;12.238;2023-01-28T08:12:21;-0.80;99.90
21001;DHT22;10658;50.920;12.238;2023-01-28T08:16:29;-0.80;99.90
21001;DHT22;10658;50.920;12.238;2023-01-28T08:20:32;-0.70;99.90
21001;DHT22;10658;50.920;12.238;2023-01-28T08:24:45;-0.80;99.90
21001;DHT22;10658;50.920;12.238;2023-01-28T08:29:02;-0.80;99.90
21001;DHT22;10658;50.920;12.238;2023-01-28T08:33:09;-0.80;99.90
21001;DHT22;10658;50.920;12.238;2023-01-28T08:37:32;-0.80;99.90
21001;DHT22;10658;50.920;12.238;2023-01-28T08:41:39;-0.80;99.90
21001;DHT22;10658;50.920;12.238;2023-01-28T08:45:40;-0.80;99.90
21001;DHT22;10658;50.920;12.238;2023-01-28T08:49:48;-0.70;99.90
21001;DHT22;10658;50.920;12.238;2023-01-28T08:53:54;-0.70;99.90
21001;DHT22;10658;50.920;12.238;2023-01-28T08:57:57;-0.70;99.90
21001;DHT22;10658;50.920;12.238;2023-01-28T09:02:01;-0.70;99.90
21001;DHT22;10658;50.920;12.238;2023-01-28T09:06:03;-0.70;99.90
21001;DHT22;10658;50.920;12.238;2023-01-28T09:10:05;-0.70;99.90
21001;DHT22;10658;50.920;12.238;2023-01-28T09:14:06;-0.70;99.90
21001;DHT22;10658;50.920;12.238;2023-01-28T09:18:08;-0.70;99.90
21001;DHT22;10658;50.920;12.238;2023-01-28T09:22:19;-0.70;99.90
21001;DHT22;10658;50.920;12.238;2023-01-28T09:26:21;-0.70;99.90
21001;DHT22;10658;50.920;12.238;2023-01-28T09:30:24;-0.70;99.90
21001;DHT22;10658;50.920;12.238;2023-01-28T09:34:26;-0.70;99.90
21001;DHT22;10658;50.920;12.238;2023-01-28T09:38:28;-0.60;99.90
21001;DHT22;10658;50.920;12.238;2023-01-28T09:47:08;-0.50;99.90
21001;DHT22;10658;50.920;12.238;2023-01-28T09:51:26;-0.50;99.90
21001;DHT22;10658;50.920;12.238;2023-01-28T09:55:35;-0.40;99.90
21001;DHT22;10658;50.920;12.238;2023-01-28T09:59:41;-0.50;99.90
21001;DHT22;10658;50.920;12.238;2023-01-28T10:13:37;-0.40;99.90
21001;DHT22;10658;50.920;12.238;2023-01-28T10:17:46;-0.30;99.90
21001;DHT22;10658;50.920;12.238;2023-01-28T10:22:01;-0.20;99.90
21001;DHT22;10658;50.920;12.238;2023-01-28T10:26:07;-0.30;99.90
21001;DHT22;10658;50.920;12.238;2023-01-28T10:34:22;-0.10;99.90
21001;DHT22;10658;50.920;12.238;2023-01-28T10:38:24;0.00;99.90
21001;DHT22;10658;50.920;12.238;2023-01-28T10:42:35;0.10;99.90
21001;DHT22;10658;50.920;12.238;2023-01-28T10:46:38;0.10;99.90
21001;DHT22;10658;50.920;12.238;2023-01-28T10:50:53;0.10;99.90
21001;DHT22;10658;50.920;12.238;2023-01-28T10:55:01;0.10;99.90
21001;DHT22;10658;50.920;12.238;2023-01-28T10:59:29;0.00;99.90
21001;DHT22;10658;50.920;12.238;2023-01-28T11:03:31;-0.10;99.90
21001;DHT22;10658;50.920;12.238;2023-01-28T11:07:34;-0.10;99.90
21001;DHT22;10658;50.920;12.238;2023-01-28T11:11:36;-0.20;99.90
21001;DHT22;10658;50.920;12.238;2023-01-28T11:20:00;-0.30;99.90
21001;DHT22;10658;50.920;12.238;2023-01-28T11:24:20;-0.30;99.90
21001;DHT22;10658;50.920;12.238;2023-01-28T11:28:22;-0.30;99.90
21001;DHT22;10658;50.920;12.238;2023-01-28T11:32:26;-0.30;99.90
21001;DHT22;10658;50.920;12.238;2023-01-28T11:36:31;-0.30;99.90
21001;DHT22;10658;50.920;12.238;2023-01-28T11:40:34;-0.30;99.90
21001;DHT22;10658;50.920;12.238;2023-01-28T11:44:35;-0.30;99.90
21001;DHT22;10658;50.920;12.238;2023-01-28T11:53:22;-0.30;99.90
21001;DHT22;10658;50.920;12.238;2023-01-28T12:01:48;-0.10;99.90
21001;DHT22;10658;50.920;12.238;2023-01-28T12:05:55;-0.20;99.90
21001;DHT22;10658;50.920;12.238;2023-01-28T12:10:08;-0.20;99.90
21001;DHT22;10658;50.920;12.238;2023-01-28T12:14:32;-0.20;99.90
21001;DHT22;10658;50.920;12.238;2023-01-28T12:19:02;-0.20;99.90
21001;DHT22;10658;50.920;12.238;2023-01-28T12:45:19;-0.10;99.90
21001;DHT22;10658;50.920;12.238;2023-01-28T12:57:59;0.10;99.90
21001;DHT22;10658;50.920;12.238;2023-01-28T13:02:41;0.00;99.90
21001;DHT22;10658;50.920;12.238;2023-01-28T13:07:05;0.00;99.90
21001;DHT22;10658;50.920;12.238;2023-01-28T13:11:13;-0.10;99.90
21001;DHT22;10658;50.920;12.238;2023-01-28T13:15:21;-0.10;99.90
21001;DHT22;10658;50.920;12.238;2023-01-28T13:19:36;-0.10;99.90
21001;DHT22;10658;50.920;12.238;2023-01-28T13:23:46;-0.10;99.90
21001;DHT22;10658;50.920;12.238;2023-01-28T13:27:58;-0.10;99.90
21001;DHT22;10658;50.920;12.238;2023-01-28T13:32:03;-0.10;99.90
21001;DHT22;10658;50.920;12.238;2023-01-28T13:36:47;-0.10;99.90
21001;DHT22;10658;50.920;12.238;2023-01-28T13:40:58;-0.10;99.90
21001;DHT22;10658;50.920;12.238;2023-01-28T13:45:32;-0.20;99.90
21001;DHT22;10658;50.920;12.238;2023-01-28T13:49:41;-0.20;99.90
21001;DHT22;10658;50.920;12.238;2023-01-28T13:54:04;-0.20;99.90
21001;DHT22;10658;50.920;12.238;2023-01-28T14:20:42;-0.30;99.90
21001;DHT22;10658;50.920;12.238;2023-01-28T14:24:50;-0.30;99.90
21001;DHT22;10658;50.920;12.238;2023-01-28T14:33:01;-0.30;99.90
21001;DHT22;10658;50.920;12.238;2023-01-28T14:37:12;-0.30;99.90
21001;DHT22;10658;50.920;12.238;2023-01-28T14:41:24;-0.30;99.90
21001;DHT22;10658;50.920;12.238;2023-01-28T14:58:19;-0.30;99.90
21001;DHT22;10658;50.920;12.238;2023-01-28T15:02:24;-0.30;99.90
21001;DHT22;10658;50.920;12.238;2023-01-28T15:06:34;-0.30;99.90
21001;DHT22;10658;50.920;12.238;2023-01-28T15:10:38;-0.30;99.90
21001;DHT22;10658;50.920;12.238;2023-01-28T15:14:41;-0.30;99.90
21001;DHT22;10658;50.920;12.238;2023-01-28T15:18:45;-0.40;99.90
21001;DHT22;10658;50.920;12.238;2023-01-28T15:22:51;-0.40;99.90
21001;DHT22;10658;50.920;12.238;2023-01-28T15:26:55;-0.40;99.90
21001;DHT22;10658;50.920;12.238;2023-01-28T15:30:58;-0.50;99.90
21001;DHT22;10658;50.920;12.238;2023-01-28T15:35:00;-0.60;99.90
21001;DHT22;10658;50.920;12.238;2023-01-28T15:39:01;-0.70;99.90
21001;DHT22;10658;50.920;12.238;2023-01-28T15:43:03;-0.70;99.90
21001;DHT22;10658;50.920;12.238;2023-01-28T15:51:29;-0.70;99.90
21001;DHT22;10658;50.920;12.238;2023-01-28T15:55:37;-0.80;99.90
21001;DHT22;10658;50.920;12.238;2023-01-28T15:59:41;-0.90;99.90
21001;DHT22;10658;50.920;12.238;2023-01-28T16:04:03;-0.90;99.90
21001;DHT22;10658;50.920;12.238;2023-01-28T16:08:11;-0.90;99.90
21001;DHT22;10658;50.920;12.238;2023-01-28T16:12:21;-1.00;99.90
21001;DHT22;10658;50.920;12.238;2023-01-28T16:16:37;-1.00;99.90
21001;DHT22;10658;50.920;12.238;2023-01-28T16:20:40;-1.00;99.90
21001;DHT22;10658;50.920;12.238;2023-01-28T16:24:49;-1.10;99.90
21001;DHT22;10658;50.920;12.238;2023-01-28T16:28:54;-1.10;99.90
21001;DHT22;10658;50.920;12.238;2023-01-28T16:32:56;-1.10;99.90
21001;DHT22;10658;50.920;12.238;2023-01-28T16:37:00;-1.10;99.90
21001;DHT22;10658;50.920;12.238;2023-01-28T16:41:01;-1.10;99.90
21001;DHT22;10658;50.920;12.238;2023-01-28T16:45:05;-1.20;99.90
21001;DHT22;10658;50.920;12.238;2023-01-28T16:49:07;-1.20;99.90
21001;DHT22;10658;50.920;12.238;2023-01-28T16:53:20;-1.10;99.90
21001;DHT22;10658;50.920;12.238;2023-01-28T16:57:30;-1.10;99.90
21001;DHT22;10658;50.920;12.238;2023-01-28T17:01:35;-1.10;99.90
21001;DHT22;10658;50.920;12.238;2023-01-28T17:05:37;-1.10;99.90
21001;DHT22;10658;50.920;12.238;2023-01-28T17:09:40;-1.10;99.90
21001;DHT22;10658;50.920;12.238;2023-01-28T17:13:42;-1.10;99.90
21001;DHT22;10658;50.920;12.238;2023-01-28T17:17:49;-1.10;99.90
21001;DHT22;10658;50.920;12.238;2023-01-28T17:21:52;-1.10;99.90
21001;DHT22;10658;50.920;12.238;2023-01-28T17:26:05;-1.10;99.90
21001;DHT22;10658;50.920;12.238;2023-01-28T17:30:08;-1.20;99.90
21001;DHT22;10658;50.920;12.238;2023-01-28T17:34:16;-1.20;99.90
21001;DHT22;10658;50.920;12.238;2023-01-28T17:38:17;-1.30;99.90
21001;DHT22;10658;50.920;12.238;2023-01-28T17:42:19;-1.20;99.90
21001;DHT22;10658;50.920;12.238;2023-01-28T17:46:24;-1.30;99.90
21001;DHT22;10658;50.920;12.238;2023-01-28T17:50:25;-1.20;99.90
21001;DHT22;10658;50.920;12.238;2023-01-28T17:54:28;-1.20;99.90
21001;DHT22;10658;50.920;12.238;2023-01-28T17:58:32;-1.20;99.90
21001;DHT22;10658;50.920;12.238;2023-01-28T18:02:39;-1.30;99.90
21001;DHT22;10658;50.920;12.238;2023-01-28T18:06:41;-1.30;99.90
21001;DHT22;10658;50.920;12.238;2023-01-28T18:10:44;-1.30;99.90
21001;DHT22;10658;50.920;12.238;2023-01-28T18:14:51;-1.40;99.90
21001;DHT22;10658;50.920;12.238;2023-01-28T18:18:53;-1.30;99.90
21001;DHT22;10658;50.920;12.238;2023-01-28T18:22:55;-1.20;99.90
21001;DHT22;10658;50.920;12.238;2023-01-28T18:27:00;-1.30;99.90
21001;DHT22;10658;50.920;12.238;2023-01-28T18:31:11;-1.30;99.90
21001;DHT22;10658;50.920;12.238;2023-01-28T18:35:15;-1.20;99.90
21001;DHT22;10658;50.920;12.238;2023-01-28T18:39:20;-1.20;99.90
21001;DHT22;10658;50.920;12.238;2023-01-28T18:43:21;-1.10;99.90
21001;DHT22;10658;50.920;12.238;2023-01-28T18:47:22;-1.10;99.90
21001;DHT22;10658;50.920;12.238;2023-01-28T18:51:24;-1.10;99.90
21001;DHT22;10658;50.920;12.238;2023-01-28T18:55:27;-1.10;99.90
21001;DHT22;10658;50.920;12.238;2023-01-28T18:59:30;-1.10;99.90
21001;DHT22;10658;50.920;12.238;2023-01-28T19:03:32;-1.00;99.90
21001;DHT22;10658;50.920;12.238;2023-01-28T19:07:36;-1.10;99.90
21001;DHT22;10658;50.920;12.238;2023-01-28T19:11:39;-1.10;99.90
21001;DHT22;10658;50.920;12.238;2023-01-28T19:15:41;-1.20;99.90
21001;DHT22;10658;50.920;12.238;2023-01-28T19:19:42;-1.20;99.90
21001;DHT22;10658;50.920;12.238;2023-01-28T19:23:43;-1.20;99.90
21001;DHT22;10658;50.920;12.238;2023-01-28T19:27:44;-1.20;99.90
21001;DHT22;10658;50.920;12.238;2023-01-28T19:31:47;-1.20;99.90
21001;DHT22;10658;50.920;12.238;2023-01-28T19:36:00;-1.20;99.90
21001;DHT22;10658;50.920;12.238;2023-01-28T19:40:01;-1.30;99.90
21001;DHT22;10658;50.920;12.238;2023-01-28T19:44:03;-1.30;99.90
21001;DHT22;10658;50.920;12.238;2023-01-28T19:48:04;-1.30;99.90
21001;DHT22;10658;50.920;12.238;2023-01-28T19:52:06;-1.20;99.90
21001;DHT22;10658;50.920;12.238;2023-01-28T19:56:13;-1.30;99.90
21001;DHT22;10658;50.920;12.238;2023-01-28T20:00:16;-1.30;99.90
21001;DHT22;10658;50.920;12.238;2023-01-28T20:04:19;-1.40;99.90
21001;DHT22;10658;50.920;12.238;2023-01-28T20:08:20;-1.40;99.90
21001;DHT22;10658;50.920;12.238;2023-01-28T20:12:22;-1.40;99.90
21001;DHT22;10658;50.920;12.238;2023-01-28T20:16:26;-1.40;99.90
21001;DHT22;10658;50.920;12.238;2023-01-28T20:20:28;-1.40;99.90
21001;DHT22;10658;50.920;12.238;2023-01-28T20:24:29;-1.50;99.90
21001;DHT22;10658;50.920;12.238;2023-01-28T20:28:30;-1.40;99.90
21001;DHT22;10658;50.920;12.238;2023-01-28T20:32:32;-1.30;99.90
21001;DHT22;10658;50.920;12.238;2023-01-28T20:36:34;-1.30;99.90
21001;DHT22;10658;50.920;12.238;2023-01-28T20:40:37;-1.20;99.90
21001;DHT22;10658;50.920;12.238;2023-01-28T20:44:40;-1.20;99.90
21001;DHT22;10658;50.920;12.238;2023-01-28T20:48:41;-1.30;99.90
21001;DHT22;10658;50.920;12.238;2023-01-28T20:52:44;-1.30;99.90
21001;DHT22;10658;50.920;12.238;2023-01-28T20:56:48;-1.30;99.90
21001;DHT22;10658;50.920;12.238;2023-01-28T21:00:56;-1.30;99.90
21001;DHT22;10658;50.920;12.238;2023-01-28T21:05:02;-1.30;99.90
21001;DHT22;10658;50.920;12.238;2023-01-28T21:09:04;-1.30;99.90
21001;DHT22;10658;50.920;12.238;2023-01-28T21:13:07;-1.30;99.90
21001;DHT22;10658;50.920;12.238;2023-01-28T21:17:11;-1.30;99.90
21001;DHT22;10658;50.920;12.238;2023-01-28T21:21:18;-1.40;99.90
21001;DHT22;10658;50.920;12.238;2023-01-28T21:25:20;-1.40;99.90
21001;DHT22;10658;50.920;12.238;2023-01-28T21:29:22;-1.40;99.90
21001;DHT22;10658;50.920;12.238;2023-01-28T21:33:23;-1.50;99.90
21001;DHT22;10658;50.920;12.238;2023-01-28T21:37:25;-1.40;99.90
21001;DHT22;10658;50.920;12.238;2023-01-28T21:41:27;-1.40;99.90
21001;DHT22;10658;50.920;12.238;2023-01-28T21:45:30;-1.50;99.90
21001;DHT22;10658;50.920;12.238;2023-01-28T21:49:31;-1.50;99.90
21001;DHT22;10658;50.920;12.238;2023-01-28T21:53:35;-1.60;99.90
21001;DHT22;10658;50.920;12.238;2023-01-28T21:57:38;-1.40;99.90
21001;DHT22;10658;50.920;12.238;2023-01-28T22:01:42;-1.50;99.90
21001;DHT22;10658;50.920;12.238;2023-01-28T22:05:53;-1.50;99.90
21001;DHT22;10658;50.920;12.238;2023-01-28T22:09:55;-1.50;99.90
21001;DHT22;10658;50.920;12.238;2023-01-28T22:13:58;-1.60;99.90
21001;DHT22;10658;50.920;12.238;2023-01-28T22:17:59;-1.50;99.90
21001;DHT22;10658;50.920;12.238;2023-01-28T22:22:05;-1.60;99.90
21001;DHT22;10658;50.920;12.238;2023-01-28T22:26:07;-1.50;99.90
21001;DHT22;10658;50.920;12.238;2023-01-28T22:30:08;-1.40;99.90
21001;DHT22;10658;50.920;12.238;2023-01-28T22:34:15;-1.50;99.90
21001;DHT22;10658;50.920;12.238;2023-01-28T22:38:16;-1.60;99.90
21001;DHT22;10658;50.920;12.238;2023-01-28T22:42:18;-1.60;99.90
21001;DHT22;10658;50.920;12.238;2023-01-28T22:46:23;-1.60;99.90
21001;DHT22;10658;50.920;12.238;2023-01-28T22:50:28;-1.60;99.90
21001;DHT22;10658;50.920;12.238;2023-01-28T22:54:36;-1.60;99.90
21001;DHT22;10658;50.920;12.238;2023-01-28T22:58:42;-1.60;99.90
21001;DHT22;10658;50.920;12.238;2023-01-28T23:02:44;-1.50;99.90
21001;DHT22;10658;50.920;12.238;2023-01-28T23:06:48;-1.60;99.90
21001;DHT22;10658;50.920;12.238;2023-01-28T23:10:49;-1.60;99.90
21001;DHT22;10658;50.920;12.238;2023-01-28T23:14:54;-1.60;99.90
21001;DHT22;10658;50.920;12.238;2023-01-28T23:19:15;-1.60;99.90
21001;DHT22;10658;50.920;12.238;2023-01-28T23:23:35;-1.60;99.90
21001;DHT22;10658;50.920;12.238;2023-01-28T23:27:55;-1.60;99.90
21001;DHT22;10658;50.920;12.238;2023-01-28T23:32:02;-1.60;99.90
21001;DHT22;10658;50.920;12.238;2023-01-28T23:36:05;-1.60;99.90
21001;DHT22;10658;50.920;12.238;2023-01-28T23:40:07;-1.60;99.90
21001;DHT22;10658;50.920;12.238;2023-01-28T23:44:08;-1.60;99.90
21001;DHT22;10658;50.920;12.238;2023-01-28T23:48:10;-1.70;99.90
21001;DHT22;10658;50.920;12.238;2023-01-28T23:52:11;-1.60;99.90
21001;DHT22;10658;50.920;12.238;2023-01-28T23:56:13;-1.60;99.90
